createdAt,value
2018-03-26T00:00:50.708Z,0
2018-03-26T00:01:50.735Z,0
2018-03-26T00:02:50.748Z,4
2018-03-26T00:03:51.023Z,0
2018-03-26T00:04:51.051Z,0
2018-03-26T00:05:51.056Z,0
2018-03-26T00:06:50.835Z,0
2018-03-26T00:07:50.831Z,0
2018-03-26T00:08:50.861Z,4
2018-03-26T00:09:50.669Z,0
2018-03-26T00:10:50.891Z,4
2018-03-26T00:11:51.160Z,0
2018-03-26T00:12:50.931Z,0
2018-03-26T00:13:50.694Z,0
2018-03-26T00:14:50.966Z,4
2018-03-26T00:15:51.238Z,0
2018-03-26T00:16:51.001Z,4
2018-03-26T00:17:51.293Z,4
2018-03-26T00:18:51.315Z,0
2018-03-26T00:19:51.307Z,0
2018-03-26T00:20:51.337Z,4
2018-03-26T00:21:51.423Z,0
2018-03-26T00:22:51.367Z,0
2018-03-26T00:23:50.874Z,4
2018-03-26T00:24:51.193Z,4
2018-03-26T00:25:51.424Z,0
2018-03-26T00:26:51.425Z,4
2018-03-26T00:27:51.196Z,0
2018-03-26T00:28:51.208Z,4
2018-03-26T00:29:51.237Z,4
2018-03-26T00:30:51.509Z,4
2018-03-26T00:31:51.536Z,4
2018-03-26T00:32:51.039Z,4
2018-03-26T00:33:51.060Z,4
2018-03-26T00:34:51.293Z,4
2018-03-26T00:35:51.345Z,0
2018-03-26T00:36:51.362Z,4
2018-03-26T00:37:51.381Z,4
2018-03-26T00:38:51.407Z,4
2018-03-26T00:39:51.475Z,0
2018-03-26T00:40:51.689Z,0
2018-03-26T00:41:51.451Z,4
2018-03-26T00:42:51.504Z,4
2018-03-26T00:43:51.748Z,4
2018-03-26T00:44:51.253Z,4
2018-03-26T00:45:51.270Z,4
2018-03-26T00:46:51.284Z,0
2018-03-26T00:47:51.555Z,4
2018-03-26T00:48:51.586Z,0
2018-03-26T00:49:51.085Z,4
2018-03-26T00:50:51.358Z,4
2018-03-26T00:51:51.469Z,0
2018-03-26T00:52:51.902Z,0
2018-03-26T00:53:51.659Z,0
2018-03-26T00:54:51.690Z,0
2018-03-26T00:55:51.962Z,0
2018-03-26T00:56:51.758Z,4
2018-03-26T00:57:51.729Z,4
2018-03-26T00:58:52.006Z,4
2018-03-26T00:59:51.768Z,0
2018-03-26T01:00:52.090Z,0
2018-03-26T01:01:51.804Z,4
2018-03-26T01:02:51.819Z,0
2018-03-26T01:03:51.587Z,0
2018-03-26T01:04:52.117Z,4
2018-03-26T01:05:52.127Z,0
2018-03-26T01:06:52.243Z,4
2018-03-26T01:07:51.910Z,0
2018-03-26T01:08:51.925Z,0
2018-03-26T01:09:52.193Z,4
2018-03-26T01:10:52.218Z,4
2018-03-26T01:11:52.282Z,0
2018-03-26T01:12:51.559Z,0
2018-03-26T01:13:51.752Z,4
2018-03-26T01:14:52.286Z,4
2018-03-26T01:15:51.790Z,4
2018-03-26T01:16:52.138Z,0
2018-03-26T01:17:51.821Z,0
2018-03-26T01:18:52.100Z,4
2018-03-26T01:19:52.112Z,4
2018-03-26T01:20:52.128Z,0
2018-03-26T01:21:52.408Z,4
2018-03-26T01:22:51.912Z,4
2018-03-26T01:23:52.457Z,4
2018-03-26T01:24:52.207Z,0
2018-03-26T01:25:52.222Z,4
2018-03-26T01:26:52.491Z,4
2018-03-26T01:27:52.257Z,4
2018-03-26T01:28:52.013Z,4
2018-03-26T01:29:52.290Z,0
2018-03-26T01:30:52.323Z,0
2018-03-26T01:31:52.114Z,0
2018-03-26T01:32:52.337Z,0
2018-03-26T01:33:52.605Z,4
2018-03-26T01:34:52.634Z,0
2018-03-26T01:35:52.397Z,0
2018-03-26T01:36:52.658Z,4
2018-03-26T01:37:52.674Z,0
2018-03-26T01:38:52.692Z,4
2018-03-26T01:39:52.468Z,0
2018-03-26T01:40:52.736Z,4
2018-03-26T01:41:52.751Z,4
2018-03-26T01:42:52.763Z,0
2018-03-26T01:43:52.535Z,0
2018-03-26T01:44:52.802Z,0
2018-03-26T01:45:52.818Z,4
2018-03-26T01:46:52.768Z,0
2018-03-26T01:47:52.603Z,0
2018-03-26T01:48:52.867Z,4
2018-03-26T01:49:52.635Z,0
2018-03-26T01:50:52.930Z,4
2018-03-26T01:51:52.676Z,4
2018-03-26T01:52:52.685Z,4
2018-03-26T01:53:52.958Z,4
2018-03-26T01:54:52.732Z,0
2018-03-26T01:55:52.739Z,4
2018-03-26T01:56:52.855Z,0
2018-03-26T01:57:52.784Z,0
2018-03-26T01:58:52.805Z,0
2018-03-26T01:59:53.060Z,0
2018-03-26T02:00:52.841Z,0
2018-03-26T02:01:52.681Z,0
2018-03-26T02:02:53.114Z,0
2018-03-26T02:03:52.624Z,4
2018-03-26T02:04:52.926Z,0
2018-03-26T02:05:52.913Z,0
2018-03-26T02:06:52.424Z,0
2018-03-26T02:07:52.946Z,0
2018-03-26T02:08:52.974Z,4
2018-03-26T02:09:53.289Z,4
2018-03-26T02:10:53.266Z,4
2018-03-26T02:11:53.068Z,4
2018-03-26T02:12:52.778Z,4
2018-03-26T02:13:52.819Z,0
2018-03-26T02:14:52.816Z,0
2018-03-26T02:15:53.091Z,4
2018-03-26T02:16:53.364Z,4
2018-03-26T02:17:53.144Z,4
2018-03-26T02:18:53.405Z,4
2018-03-26T02:19:53.408Z,4
2018-03-26T02:20:52.663Z,0
2018-03-26T02:21:53.444Z,0
2018-03-26T02:22:53.205Z,0
2018-03-26T02:23:53.248Z,4
2018-03-26T02:24:53.547Z,0
2018-03-26T02:25:53.009Z,0
2018-03-26T02:26:53.077Z,0
2018-03-26T02:27:53.042Z,0
2018-03-26T02:28:53.302Z,4
2018-03-26T02:29:53.306Z,0
2018-03-26T02:30:53.413Z,4
2018-03-26T02:31:53.615Z,4
2018-03-26T02:32:53.642Z,0
2018-03-26T02:33:53.417Z,0
2018-03-26T02:34:53.436Z,4
2018-03-26T02:35:52.931Z,0
2018-03-26T02:36:53.716Z,0
2018-03-26T02:37:53.741Z,4
2018-03-26T02:38:53.755Z,4
2018-03-26T02:39:53.516Z,4
2018-03-26T02:40:53.539Z,0
2018-03-26T02:41:53.342Z,4
2018-03-26T02:42:53.823Z,4
2018-03-26T02:43:53.834Z,0
2018-03-26T02:44:53.838Z,4
2018-03-26T02:45:53.609Z,4
2018-03-26T02:46:53.945Z,0
2018-03-26T02:47:53.403Z,0
2018-03-26T02:48:53.984Z,4
2018-03-26T02:49:53.957Z,4
2018-03-26T02:50:53.810Z,4
2018-03-26T02:51:54.002Z,0
2018-03-26T02:52:53.493Z,4
2018-03-26T02:53:53.506Z,4
2018-03-26T02:54:53.785Z,0
2018-03-26T02:55:53.544Z,4
2018-03-26T02:56:54.065Z,0
2018-03-26T02:57:54.088Z,0
2018-03-26T02:58:53.596Z,4
2018-03-26T02:59:53.868Z,4
2018-03-26T03:00:54.136Z,4
2018-03-26T03:01:53.946Z,4
2018-03-26T03:02:54.192Z,0
2018-03-26T03:03:53.689Z,0
2018-03-26T03:04:53.952Z,4
2018-03-26T03:05:54.227Z,0
2018-03-26T03:06:54.249Z,4
2018-03-26T03:07:53.744Z,0
2018-03-26T03:08:54.013Z,0
2018-03-26T03:09:54.290Z,4
2018-03-26T03:10:53.796Z,0
2018-03-26T03:11:54.088Z,4
2018-03-26T03:12:53.832Z,4
2018-03-26T03:13:54.358Z,0
2018-03-26T03:14:54.122Z,4
2018-03-26T03:15:53.903Z,4
2018-03-26T03:16:54.464Z,4
2018-03-26T03:17:54.179Z,4
2018-03-26T03:18:54.197Z,4
2018-03-26T03:19:54.480Z,4
2018-03-26T03:20:54.243Z,4
2018-03-26T03:21:53.997Z,4
2018-03-26T03:22:54.256Z,4
2018-03-26T03:23:54.273Z,4
2018-03-26T03:24:54.555Z,0
2018-03-26T03:25:54.312Z,4
2018-03-26T03:26:54.573Z,4
2018-03-26T03:27:54.599Z,4
2018-03-26T03:28:54.358Z,4
2018-03-26T03:29:54.387Z,4
2018-03-26T03:30:54.423Z,4
2018-03-26T03:31:54.716Z,4
2018-03-26T03:32:54.709Z,4
2018-03-26T03:33:54.707Z,4
2018-03-26T03:34:54.722Z,4
2018-03-26T03:35:54.746Z,4
2018-03-26T03:36:54.499Z,4
2018-03-26T03:37:54.772Z,4
2018-03-26T03:38:54.546Z,4
2018-03-26T03:39:54.556Z,4
2018-03-26T03:40:54.064Z,4
2018-03-26T03:41:54.075Z,4
2018-03-26T03:42:54.603Z,4
2018-03-26T03:43:54.363Z,4
2018-03-26T03:44:54.643Z,4
2018-03-26T03:45:54.652Z,4
2018-03-26T03:46:54.916Z,0
2018-03-26T03:47:54.687Z,4
2018-03-26T03:48:54.701Z,0
2018-03-26T03:49:54.765Z,4
2018-03-26T03:50:54.748Z,4
2018-03-26T03:51:54.504Z,4
2018-03-26T03:52:54.770Z,4
2018-03-26T03:53:54.788Z,0
2018-03-26T03:54:54.808Z,4
2018-03-26T03:55:54.824Z,4
2018-03-26T03:56:55.092Z,0
2018-03-26T03:57:54.850Z,4
2018-03-26T03:58:54.863Z,4
2018-03-26T03:59:55.237Z,4
2018-03-26T04:00:54.913Z,4
2018-03-26T04:01:54.917Z,4
2018-03-26T04:02:54.946Z,4
2018-03-26T04:03:54.957Z,4
2018-03-26T04:04:55.128Z,4
2018-03-26T04:05:55.249Z,4
2018-03-26T04:06:54.998Z,4
2018-03-26T04:07:55.273Z,4
2018-03-26T04:08:55.287Z,4
2018-03-26T04:09:55.041Z,4
2018-03-26T04:10:55.318Z,4
2018-03-26T04:11:55.326Z,4
2018-03-26T04:12:55.353Z,4
2018-03-26T04:13:55.109Z,4
2018-03-26T04:14:55.147Z,4
2018-03-26T04:15:55.139Z,4
2018-03-26T04:16:55.414Z,4
2018-03-26T04:17:55.604Z,4
2018-03-26T04:18:54.942Z,4
2018-03-26T04:19:55.017Z,4
2018-03-26T04:20:55.238Z,4
2018-03-26T04:21:55.003Z,4
2018-03-26T04:22:54.764Z,4
2018-03-26T04:23:55.291Z,4
2018-03-26T04:24:55.311Z,4
2018-03-26T04:25:55.769Z,4
2018-03-26T04:26:55.346Z,4
2018-03-26T04:27:55.607Z,4
2018-03-26T04:28:55.636Z,4
2018-03-26T04:29:55.143Z,4
2018-03-26T04:30:55.417Z,4
2018-03-26T04:31:55.426Z,4
2018-03-26T04:32:55.448Z,4
2018-03-26T04:33:55.720Z,4
2018-03-26T04:34:55.791Z,4
2018-03-26T04:35:55.748Z,4
2018-03-26T04:36:55.521Z,4
2018-03-26T04:37:55.528Z,4
2018-03-26T04:38:55.269Z,4
2018-03-26T04:39:55.547Z,4
2018-03-26T04:40:55.307Z,4
2018-03-26T04:41:55.867Z,4
2018-03-26T04:42:55.612Z,8
2018-03-26T04:43:55.380Z,8
2018-03-26T04:44:55.902Z,8
2018-03-26T04:45:55.686Z,8
2018-03-26T04:46:55.432Z,12
2018-03-26T04:47:55.952Z,12
2018-03-26T04:48:55.717Z,16
2018-03-26T04:49:56.087Z,16
2018-03-26T04:50:55.998Z,16
2018-03-26T04:51:55.783Z,20
2018-03-26T04:52:55.526Z,24
2018-03-26T04:53:55.546Z,24
2018-03-26T04:54:55.566Z,32
2018-03-26T04:55:55.956Z,36
2018-03-26T04:56:55.858Z,44
2018-03-26T04:57:55.873Z,52
2018-03-26T04:58:56.143Z,64
2018-03-26T04:59:55.902Z,68
2018-03-26T05:00:55.658Z,80
2018-03-26T05:01:55.677Z,88
2018-03-26T05:02:56.200Z,104
2018-03-26T05:03:56.220Z,116
2018-03-26T05:04:56.241Z,132
2018-03-26T05:05:56.269Z,144
2018-03-26T05:06:56.516Z,160
2018-03-26T05:07:56.036Z,180
2018-03-26T05:08:56.029Z,196
2018-03-26T05:09:55.788Z,212
2018-03-26T05:10:56.320Z,228
2018-03-26T05:11:56.122Z,252
2018-03-26T05:12:55.858Z,264
2018-03-26T05:13:56.132Z,284
2018-03-26T05:14:56.143Z,304
2018-03-26T05:15:56.168Z,320
2018-03-26T05:16:55.937Z,332
2018-03-26T05:17:56.195Z,348
2018-03-26T05:18:56.463Z,360
2018-03-26T05:19:56.486Z,376
2018-03-26T05:20:55.987Z,392
2018-03-26T05:21:56.257Z,428
2018-03-26T05:22:56.561Z,460
2018-03-26T05:23:56.285Z,496
2018-03-26T05:24:56.559Z,524
2018-03-26T05:25:56.581Z,548
2018-03-26T05:26:56.638Z,576
2018-03-26T05:27:56.095Z,612
2018-03-26T05:28:56.371Z,644
2018-03-26T05:29:56.390Z,668
2018-03-26T05:30:56.662Z,680
2018-03-26T05:31:56.515Z,684
2018-03-26T05:32:56.185Z,684
2018-03-26T05:33:56.448Z,676
2018-03-26T05:34:56.467Z,680
2018-03-26T05:35:56.435Z,684
2018-03-26T05:36:56.809Z,704
2018-03-26T05:37:56.263Z,724
2018-03-26T05:38:56.539Z,744
2018-03-26T05:39:56.546Z,764
2018-03-26T05:40:56.883Z,784
2018-03-26T05:41:56.839Z,808
2018-03-26T05:42:56.338Z,848
2018-03-26T05:43:56.610Z,900
2018-03-26T05:44:56.624Z,976
2018-03-26T05:45:56.647Z,1064
2018-03-26T05:46:56.405Z,1160
2018-03-26T05:47:56.679Z,1256
2018-03-26T05:48:56.688Z,1336
2018-03-26T05:49:57.034Z,1392
2018-03-26T05:50:56.987Z,1424
2018-03-26T05:51:56.539Z,1444
2018-03-26T05:52:56.799Z,1460
2018-03-26T05:53:57.022Z,1456
2018-03-26T05:54:57.045Z,1452
2018-03-26T05:55:57.051Z,1456
2018-03-26T05:56:57.073Z,1460
2018-03-26T05:57:56.327Z,1464
2018-03-26T05:58:56.856Z,1480
2018-03-26T05:59:56.619Z,1524
2018-03-26T06:00:57.144Z,1564
2018-03-26T06:01:56.903Z,1616
2018-03-26T06:02:56.914Z,1680
2018-03-26T06:03:56.690Z,1744
2018-03-26T06:04:57.220Z,1784
2018-03-26T06:05:56.972Z,1780
2018-03-26T06:06:57.243Z,1728
2018-03-26T06:07:57.003Z,1660
2018-03-26T06:08:57.025Z,1596
2018-03-26T06:09:57.039Z,1532
2018-03-26T06:10:57.048Z,1468
2018-03-26T06:11:57.119Z,1424
2018-03-26T06:12:57.086Z,1396
2018-03-26T06:13:56.838Z,1404
2018-03-26T06:14:57.132Z,1444
2018-03-26T06:15:57.387Z,1508
2018-03-26T06:16:56.892Z,1584
2018-03-26T06:17:57.231Z,1668
2018-03-26T06:18:56.924Z,1728
2018-03-26T06:19:56.942Z,1744
2018-03-26T06:20:57.211Z,1740
2018-03-26T06:21:57.232Z,1736
2018-03-26T06:22:57.241Z,1732
2018-03-26T06:23:57.259Z,1748
2018-03-26T06:24:57.793Z,1796
2018-03-26T06:25:57.286Z,1888
2018-03-26T06:26:57.307Z,2004
2018-03-26T06:27:57.324Z,2124
2018-03-26T06:28:57.359Z,2268
2018-03-26T06:29:57.356Z,2416
2018-03-26T06:30:57.619Z,2576
2018-03-26T06:31:57.143Z,2720
2018-03-26T06:32:57.721Z,2836
2018-03-26T06:33:57.172Z,2940
2018-03-26T06:34:57.441Z,3048
2018-03-26T06:35:57.210Z,3148
2018-03-26T06:36:57.484Z,3216
2018-03-26T06:37:57.265Z,3356
2018-03-26T06:38:57.534Z,3420
2018-03-26T06:39:57.530Z,3600
2018-03-26T06:40:57.298Z,3912
2018-03-26T06:41:57.304Z,3892
2018-03-26T06:42:57.575Z,3780
2018-03-26T06:43:57.852Z,3776
2018-03-26T06:44:57.356Z,3732
2018-03-26T06:45:57.624Z,3656
2018-03-26T06:46:57.943Z,3620
2018-03-26T06:47:57.458Z,3580
2018-03-26T06:48:57.422Z,3560
2018-03-26T06:49:57.443Z,3520
2018-03-26T06:50:57.714Z,3492
2018-03-26T06:51:57.473Z,3448
2018-03-26T06:52:57.849Z,3408
2018-03-26T06:53:58.012Z,3376
2018-03-26T06:54:57.527Z,3376
2018-03-26T06:55:58.065Z,3380
2018-03-26T06:56:57.818Z,3424
2018-03-26T06:57:58.090Z,3476
2018-03-26T06:58:57.844Z,3476
2018-03-26T06:59:57.624Z,3440
2018-03-26T07:00:57.371Z,3372
2018-03-26T07:01:57.640Z,3264
2018-03-26T07:02:57.964Z,3144
2018-03-26T07:03:58.187Z,3040
2018-03-26T07:04:58.210Z,2976
2018-03-26T07:05:57.709Z,2908
2018-03-26T07:06:57.727Z,2852
2018-03-26T07:07:57.497Z,2824
2018-03-26T07:08:58.013Z,2828
2018-03-26T07:09:58.279Z,2844
2018-03-26T07:10:58.044Z,2852
2018-03-26T07:11:58.319Z,2864
2018-03-26T07:12:57.832Z,2908
2018-03-26T07:13:58.360Z,3000
2018-03-26T07:14:58.119Z,3084
2018-03-26T07:15:58.450Z,3132
2018-03-26T07:16:57.643Z,3140
2018-03-26T07:17:58.226Z,3128
2018-03-26T07:18:58.490Z,3144
2018-03-26T07:19:58.209Z,3176
2018-03-26T07:20:58.478Z,3216
2018-03-26T07:21:58.240Z,3224
2018-03-26T07:22:58.009Z,3196
2018-03-26T07:23:58.536Z,3156
2018-03-26T07:24:58.288Z,3112
2018-03-26T07:25:58.583Z,3092
2018-03-26T07:26:58.326Z,3092
2018-03-26T07:27:58.351Z,3064
2018-03-26T07:28:58.493Z,3008
2018-03-26T07:29:58.120Z,2944
2018-03-26T07:30:58.651Z,2904
2018-03-26T07:31:58.668Z,2920
2018-03-26T07:32:58.473Z,2980
2018-03-26T07:33:58.452Z,3068
2018-03-26T07:34:58.209Z,3152
2018-03-26T07:35:58.758Z,3208
2018-03-26T07:36:58.743Z,3244
2018-03-26T07:37:58.253Z,3296
2018-03-26T07:38:58.531Z,3364
2018-03-26T07:39:58.785Z,3428
2018-03-26T07:40:58.298Z,3520
2018-03-26T07:41:58.824Z,3616
2018-03-26T07:42:58.788Z,3688
2018-03-26T07:43:58.854Z,3740
2018-03-26T07:44:58.634Z,3760
2018-03-26T07:45:58.900Z,3788
2018-03-26T07:46:58.659Z,3816
2018-03-26T07:47:58.988Z,3840
2018-03-26T07:48:58.702Z,3856
2018-03-26T07:49:58.846Z,3864
2018-03-26T07:50:58.241Z,3900
2018-03-26T07:51:58.855Z,3948
2018-03-26T07:52:58.512Z,3996
2018-03-26T07:53:59.030Z,4012
2018-03-26T07:54:59.047Z,4036
2018-03-26T07:55:58.807Z,4024
2018-03-26T07:56:58.835Z,4000
2018-03-26T07:57:58.593Z,3976
2018-03-26T07:58:59.126Z,3980
2018-03-26T07:59:58.880Z,4020
2018-03-26T08:00:58.648Z,4072
2018-03-26T08:01:59.186Z,4112
2018-03-26T08:02:59.243Z,4140
2018-03-26T08:03:58.960Z,4168
2018-03-26T08:04:58.509Z,4196
2018-03-26T08:05:59.009Z,4200
2018-03-26T08:06:59.003Z,4168
2018-03-26T08:07:59.030Z,4120
2018-03-26T08:08:59.045Z,4096
2018-03-26T08:09:59.310Z,4084
2018-03-26T08:10:59.089Z,4084
2018-03-26T08:11:59.346Z,4068
2018-03-26T08:12:59.357Z,4060
2018-03-26T08:13:58.871Z,4080
2018-03-26T08:14:58.636Z,4124
2018-03-26T08:15:58.913Z,4168
2018-03-26T08:16:59.247Z,4260
2018-03-26T08:17:59.255Z,4360
2018-03-26T08:18:59.243Z,4440
2018-03-26T08:19:59.245Z,4560
2018-03-26T08:20:58.994Z,4696
2018-03-26T08:21:59.264Z,4788
2018-03-26T08:22:59.031Z,4824
2018-03-26T08:23:59.298Z,4860
2018-03-26T08:24:59.320Z,4884
2018-03-26T08:25:59.596Z,4932
2018-03-26T08:26:59.612Z,5004
2018-03-26T08:27:59.377Z,5096
2018-03-26T08:28:59.135Z,5196
2018-03-26T08:29:59.407Z,5268
2018-03-26T08:30:59.791Z,5288
2018-03-26T08:31:59.698Z,5288
2018-03-26T08:32:59.251Z,5256
2018-03-26T08:33:59.222Z,5212
2018-03-26T08:34:59.756Z,5180
2018-03-26T08:35:59.508Z,5160
2018-03-26T08:36:59.780Z,5160
2018-03-26T08:37:59.767Z,5164
2018-03-26T08:38:59.581Z,5172
2018-03-26T08:39:59.832Z,5140
2018-03-26T08:40:59.593Z,5108
2018-03-26T08:41:59.366Z,5104
2018-03-26T08:42:59.628Z,5160
2018-03-26T08:43:59.394Z,5244
2018-03-26T08:44:59.918Z,5336
2018-03-26T08:45:59.685Z,5428
2018-03-26T08:46:59.701Z,5504
2018-03-26T08:48:00.029Z,5596
2018-03-26T08:48:59.737Z,5664
2018-03-26T08:50:00.349Z,5740
2018-03-26T08:50:59.764Z,5820
2018-03-26T08:51:59.781Z,5904
2018-03-26T08:52:59.549Z,5996
2018-03-26T08:53:59.568Z,6112
2018-03-26T08:55:00.105Z,6188
2018-03-26T08:55:59.854Z,6204
2018-03-26T08:56:59.874Z,6196
2018-03-26T08:58:00.140Z,6216
2018-03-26T08:58:59.906Z,6276
2018-03-26T09:00:00.182Z,6356
2018-03-26T09:00:59.701Z,6456
2018-03-26T09:01:59.972Z,6584
2018-03-26T09:02:59.722Z,6744
2018-03-26T09:03:59.999Z,6944
2018-03-26T09:05:00.020Z,7160
2018-03-26T09:06:00.041Z,7388
2018-03-26T09:07:00.075Z,7612
2018-03-26T09:07:59.815Z,7824
2018-03-26T09:08:59.835Z,7948
2018-03-26T09:09:59.856Z,7952
2018-03-26T09:11:00.376Z,7820
2018-03-26T09:12:00.423Z,7752
2018-03-26T09:13:00.409Z,7776
2018-03-26T09:14:00.428Z,7868
2018-03-26T09:14:59.947Z,8112
2018-03-26T09:16:00.524Z,8516
2018-03-26T09:17:00.491Z,8984
2018-03-26T09:18:00.255Z,9312
2018-03-26T09:19:00.537Z,9824
2018-03-26T09:20:00.543Z,9928
2018-03-26T09:21:00.058Z,10248
2018-03-26T09:22:00.323Z,10904
2018-03-26T09:23:00.091Z,11260
2018-03-26T09:24:00.620Z,11364
2018-03-26T09:25:00.378Z,11736
2018-03-26T09:26:00.737Z,12204
2018-03-26T09:27:00.430Z,12840
2018-03-26T09:28:00.697Z,14180
2018-03-26T09:29:00.452Z,12736
2018-03-26T09:30:00.477Z,11860
2018-03-26T09:31:00.751Z,11752
2018-03-26T09:32:00.780Z,11696
2018-03-26T09:33:00.529Z,11684
2018-03-26T09:34:00.814Z,11548
2018-03-26T09:35:00.822Z,11376
2018-03-26T09:36:00.594Z,10992
2018-03-26T09:37:00.352Z,10244
2018-03-26T09:38:00.632Z,9628
2018-03-26T09:39:00.649Z,9204
2018-03-26T09:40:00.927Z,8624
2018-03-26T09:41:00.685Z,7960
2018-03-26T09:42:00.965Z,7372
2018-03-26T09:43:00.727Z,6984
2018-03-26T09:44:00.496Z,6952
2018-03-26T09:45:00.763Z,7244
2018-03-26T09:46:00.799Z,7480
2018-03-26T09:47:01.072Z,7784
2018-03-26T09:48:01.101Z,7920
2018-03-26T09:49:01.090Z,7808
2018-03-26T09:50:00.639Z,7668
2018-03-26T09:51:01.126Z,7304
2018-03-26T09:52:00.915Z,7168
2018-03-26T09:53:01.173Z,7280
2018-03-26T09:54:00.935Z,7580
2018-03-26T09:55:00.960Z,8188
2018-03-26T09:56:01.043Z,8964
2018-03-26T09:57:00.492Z,9728
2018-03-26T09:58:01.021Z,10252
2018-03-26T09:59:01.045Z,10536
2018-03-26T10:00:01.320Z,10780
2018-03-26T10:01:01.339Z,10796
2018-03-26T10:02:01.356Z,10900
2018-03-26T10:03:01.374Z,10656
2018-03-26T10:04:01.141Z,10120
2018-03-26T10:05:01.160Z,9820
2018-03-26T10:06:00.929Z,9700
2018-03-26T10:07:01.214Z,9836
2018-03-26T10:08:01.230Z,9736
2018-03-26T10:09:01.241Z,9492
2018-03-26T10:10:01.005Z,9332
2018-03-26T10:11:00.820Z,9228
2018-03-26T10:12:01.298Z,9356
2018-03-26T10:13:01.326Z,9596
2018-03-26T10:14:01.594Z,9792
2018-03-26T10:15:01.616Z,10004
2018-03-26T10:16:01.699Z,9996
2018-03-26T10:17:01.669Z,9624
2018-03-26T10:18:01.665Z,9024
2018-03-26T10:19:01.422Z,8444
2018-03-26T10:20:01.189Z,8188
2018-03-26T10:21:01.466Z,8276
2018-03-26T10:22:01.278Z,8552
2018-03-26T10:23:01.523Z,8976
2018-03-26T10:24:01.542Z,9208
2018-03-26T10:25:01.565Z,9092
2018-03-26T10:26:01.428Z,8996
2018-03-26T10:27:01.872Z,8416
2018-03-26T10:28:01.895Z,8316
2018-03-26T10:29:01.382Z,8300
2018-03-26T10:30:01.671Z,8168
2018-03-26T10:31:01.939Z,7980
2018-03-26T10:32:01.957Z,7704
2018-03-26T10:33:01.734Z,7448
2018-03-26T10:34:01.730Z,7224
2018-03-26T10:35:02.019Z,7180
2018-03-26T10:36:01.766Z,7248
2018-03-26T10:37:02.051Z,7368
2018-03-26T10:38:02.075Z,7408
2018-03-26T10:39:01.850Z,7412
2018-03-26T10:40:01.605Z,7404
2018-03-26T10:41:01.934Z,7504
2018-03-26T10:42:02.158Z,7680
2018-03-26T10:43:01.690Z,7724
2018-03-26T10:44:01.942Z,7436
2018-03-26T10:45:01.962Z,6956
2018-03-26T10:46:01.987Z,6464
2018-03-26T10:47:02.025Z,6036
2018-03-26T10:48:02.282Z,5756
2018-03-26T10:49:01.790Z,5732
2018-03-26T10:50:02.315Z,5920
2018-03-26T10:51:02.397Z,6272
2018-03-26T10:52:02.360Z,6684
2018-03-26T10:53:01.922Z,7060
2018-03-26T10:54:01.638Z,7472
2018-03-26T10:55:02.414Z,7928
2018-03-26T10:56:02.082Z,8460
2018-03-26T10:57:02.454Z,9036
2018-03-26T10:58:02.222Z,9556
2018-03-26T10:59:01.985Z,9900
2018-03-26T11:00:02.267Z,9928
2018-03-26T11:01:02.589Z,9872
2018-03-26T11:02:02.300Z,9996
2018-03-26T11:03:02.324Z,10472
2018-03-26T11:04:02.340Z,10988
2018-03-26T11:05:02.624Z,11148
2018-03-26T11:06:02.388Z,11140
2018-03-26T11:07:02.657Z,11204
2018-03-26T11:08:02.422Z,11508
2018-03-26T11:09:02.699Z,12024
2018-03-26T11:10:02.214Z,12328
2018-03-26T11:11:02.527Z,12632
2018-03-26T11:12:01.997Z,12944
2018-03-26T11:13:02.525Z,13032
2018-03-26T11:14:02.599Z,12408
2018-03-26T11:15:02.549Z,11624
2018-03-26T11:16:02.589Z,11164
2018-03-26T11:17:02.607Z,10872
2018-03-26T11:18:02.378Z,10776
2018-03-26T11:19:02.651Z,11048
2018-03-26T11:20:02.432Z,11596
2018-03-26T11:21:02.698Z,12040
2018-03-26T11:22:02.971Z,11340
2018-03-26T11:23:02.744Z,10804
2018-03-26T11:24:02.755Z,10952
2018-03-26T11:25:02.517Z,11100
2018-03-26T11:26:02.803Z,11096
2018-03-26T11:27:02.812Z,11176
2018-03-26T11:28:02.884Z,11144
2018-03-26T11:29:03.117Z,11084
2018-03-26T11:30:02.936Z,11008
2018-03-26T11:31:03.152Z,11204
2018-03-26T11:32:03.174Z,11392
2018-03-26T11:33:02.940Z,11488
2018-03-26T11:34:02.453Z,11488
2018-03-26T11:35:03.247Z,11968
2018-03-26T11:36:03.009Z,12240
2018-03-26T11:37:03.024Z,12516
2018-03-26T11:38:03.069Z,12816
2018-03-26T11:39:03.330Z,14284
2018-03-26T11:40:02.832Z,14200
2018-03-26T11:41:03.110Z,15196
2018-03-26T11:42:03.131Z,14148
2018-03-26T11:43:03.150Z,13152
2018-03-26T11:44:03.425Z,11520
2018-03-26T11:45:03.194Z,9780
2018-03-26T11:46:03.224Z,8832
2018-03-26T11:47:03.542Z,8224
2018-03-26T11:48:03.263Z,7796
2018-03-26T11:49:03.601Z,7364
2018-03-26T11:50:03.299Z,7080
2018-03-26T11:51:03.328Z,7052
2018-03-26T11:52:03.093Z,7048
2018-03-26T11:53:03.370Z,6944
2018-03-26T11:54:03.644Z,6748
2018-03-26T11:55:03.670Z,6592
2018-03-26T11:56:03.177Z,6524
2018-03-26T11:57:03.449Z,6524
2018-03-26T11:58:03.721Z,6484
2018-03-26T11:59:03.230Z,6464
2018-03-26T12:00:03.502Z,6448
2018-03-26T12:01:03.534Z,6440
2018-03-26T12:02:03.554Z,6368
2018-03-26T12:03:03.821Z,6200
2018-03-26T12:04:03.838Z,5988
2018-03-26T12:05:03.617Z,5768
2018-03-26T12:06:03.383Z,5544
2018-03-26T12:07:03.675Z,5368
2018-03-26T12:08:03.943Z,5212
2018-03-26T12:09:04.014Z,5068
2018-03-26T12:10:03.977Z,4896
2018-03-26T12:11:03.749Z,4696
2018-03-26T12:12:03.788Z,4432
2018-03-26T12:13:03.823Z,4172
2018-03-26T12:14:04.072Z,3928
2018-03-26T12:15:03.834Z,3696
2018-03-26T12:16:03.850Z,3484
2018-03-26T12:17:04.122Z,3312
2018-03-26T12:18:03.882Z,3192
2018-03-26T12:19:04.160Z,3112
2018-03-26T12:20:03.924Z,3044
2018-03-26T12:21:03.701Z,2972
2018-03-26T12:22:03.969Z,2876
2018-03-26T12:23:03.732Z,2764
2018-03-26T12:24:04.249Z,2680
2018-03-26T12:25:03.808Z,2608
2018-03-26T12:26:04.046Z,2564
2018-03-26T12:27:03.803Z,2524
2018-03-26T12:28:04.081Z,2476
2018-03-26T12:29:04.100Z,2432
2018-03-26T12:30:03.917Z,2400
2018-03-26T12:31:03.885Z,2388
2018-03-26T12:32:04.425Z,2396
2018-03-26T12:33:04.229Z,2392
2018-03-26T12:34:03.938Z,2376
2018-03-26T12:35:04.212Z,2348
2018-03-26T12:36:04.263Z,2296
2018-03-26T12:37:04.255Z,2248
2018-03-26T12:38:04.500Z,2228
2018-03-26T12:39:04.265Z,2240
2018-03-26T12:40:04.353Z,2244
2018-03-26T12:41:04.334Z,2248
2018-03-26T12:42:04.357Z,2256
2018-03-26T12:43:04.210Z,2272
2018-03-26T12:44:04.394Z,2296
2018-03-26T12:45:04.150Z,2328
2018-03-26T12:46:04.421Z,2372
2018-03-26T12:47:04.211Z,2440
2018-03-26T12:48:04.764Z,2496
2018-03-26T12:49:04.737Z,2528
2018-03-26T12:50:04.496Z,2536
2018-03-26T12:51:04.539Z,2524
2018-03-26T12:52:04.536Z,2492
2018-03-26T12:53:04.318Z,2452
2018-03-26T12:54:04.836Z,2416
2018-03-26T12:55:04.596Z,2396
2018-03-26T12:56:04.871Z,2392
2018-03-26T12:57:04.885Z,2392
2018-03-26T12:58:04.658Z,2372
2018-03-26T12:59:04.419Z,2312
2018-03-26T13:00:04.733Z,2228
2018-03-26T13:01:04.969Z,2132
2018-03-26T13:02:04.497Z,2044
2018-03-26T13:03:04.495Z,1964
2018-03-26T13:04:05.021Z,1892
2018-03-26T13:05:06.039Z,1836
2018-03-26T13:06:04.575Z,1808
2018-03-26T13:07:04.823Z,1808
2018-03-26T13:08:04.840Z,1800
2018-03-26T13:09:04.860Z,1788
2018-03-26T13:10:04.416Z,1780
2018-03-26T13:11:05.155Z,1756
2018-03-26T13:12:04.661Z,1732
2018-03-26T13:13:04.943Z,1704
2018-03-26T13:14:05.206Z,1684
2018-03-26T13:15:05.179Z,1688
2018-03-26T13:16:04.994Z,1736
2018-03-26T13:17:04.756Z,1828
2018-03-26T13:18:04.776Z,1928
2018-03-26T13:19:04.793Z,1996
2018-03-26T13:20:04.810Z,2024
2018-03-26T13:21:05.389Z,2020
2018-03-26T13:22:05.356Z,1996
2018-03-26T13:23:05.136Z,1960
2018-03-26T13:24:04.888Z,1944
2018-03-26T13:25:05.214Z,1948
2018-03-26T13:26:05.440Z,1956
2018-03-26T13:27:05.216Z,1956
2018-03-26T13:28:05.208Z,1976
2018-03-26T13:29:05.227Z,2008
2018-03-26T13:30:05.317Z,2060
2018-03-26T13:31:05.271Z,2104
2018-03-26T13:32:05.596Z,2124
2018-03-26T13:33:05.303Z,2116
2018-03-26T13:34:05.328Z,2100
2018-03-26T13:35:05.090Z,2108
2018-03-26T13:36:05.621Z,2148
2018-03-26T13:37:05.633Z,2224
2018-03-26T13:38:05.401Z,2332
2018-03-26T13:39:05.418Z,2472
2018-03-26T13:40:05.697Z,2616
2018-03-26T13:41:05.450Z,2772
2018-03-26T13:42:05.725Z,2952
2018-03-26T13:43:05.496Z,3160
2018-03-26T13:44:05.817Z,3356
2018-03-26T13:45:05.532Z,3508
2018-03-26T13:46:05.552Z,3624
2018-03-26T13:47:05.875Z,3684
2018-03-26T13:48:05.585Z,3696